Time;durP1;ratioP1;P1;durP2;ratioP2;P2;SDS_P1;SDS_P2;PMS_P1;PMS_P2;Temp;Humidity;BMP_temperature;BMP_pressure;BME280_temperature;BME280_humidity;BME280_pressure;Samples;Min_cycle;Max_cycle;Signal;HPM_P1;HPM_P2
2021/01/30 00:00:33;;;;;;;73.60;34.00;;;;;;;28.65;51.17;101233.50;5076163;28;69362;-30
2021/01/30 00:03:05;;;;;;;68.47;37.70;;;;;;;28.68;51.03;101227.72;5076570;28;65888;-30
2021/01/30 00:05:36;;;;;;;66.57;36.92;;;;;;;28.67;51.20;101220.66;5074848;28;69240;-30
2021/01/30 00:08:14;;;;;;;65.07;36.83;;;;;;;28.70;50.96;101223.78;5064305;27;66345;-31
2021/01/30 00:10:45;;;;;;;59.13;35.03;;;;;;;28.68;51.03;101228.53;5064724;27;69967;-29
2021/01/30 00:13:16;;;;;;;74.03;35.85;;;;;;;28.71;51.28;101232.72;5068956;27;66012;-30
2021/01/30 00:15:46;;;;;;;65.40;35.72;;;;;;;28.76;50.86;101241.06;5065950;27;70065;-30
2021/01/30 00:18:17;;;;;;;58.30;33.72;;;;;;;28.78;51.02;101244.41;5065518;27;66708;-30
2021/01/30 00:20:47;;;;;;;65.00;35.15;;;;;;;28.72;51.71;101237.94;5067497;27;69445;-31
2021/01/30 00:23:18;;;;;;;65.90;35.97;;;;;;;28.65;50.72;101244.31;5079276;27;65921;-30
2021/01/30 00:25:55;;;;;;;66.13;38.92;;;;;;;28.57;49.40;101250.69;5052324;28;70010;-29
2021/01/30 00:28:25;;;;;;;66.78;40.67;;;;;;;28.46;49.41;101246.63;5078859;27;65938;-30
2021/01/30 00:30:56;;;;;;;65.50;38.38;;;;;;;28.51;50.17;101263.09;5064414;27;69870;-31
2021/01/30 00:33:26;;;;;;;74.35;38.83;;;;;;;28.47;50.28;101248.34;5038843;27;65309;-28
2021/01/30 00:35:58;;;;;;;65.40;37.20;;;;;;;28.62;50.97;101263.59;5065163;27;70779;-30
2021/01/30 00:38:29;;;;;;;72.90;39.63;;;;;;;28.70;50.95;101268.84;5076545;27;65256;-30
2021/01/30 00:40:59;;;;;;;73.80;38.83;;;;;;;28.69;50.93;101277.97;5069845;27;70518;-29
2021/01/30 00:43:30;;;;;;;80.07;37.40;;;;;;;28.74;51.27;101275.50;5077050;28;65959;-29
2021/01/30 00:46:01;;;;;;;67.88;37.38;;;;;;;28.69;50.74;101276.09;5055634;28;69167;-29
2021/01/30 00:48:32;;;;;;;75.75;40.78;;;;;;;28.75;50.91;101282.56;5057694;27;65315;-29
2021/01/30 00:51:02;;;;;;;71.32;40.80;;;;;;;28.74;50.58;101281.75;5059501;28;69833;-30
2021/01/30 00:53:33;;;;;;;67.10;40.17;;;;;;;28.77;50.50;101277.81;5052854;28;66894;-30
2021/01/30 00:56:04;;;;;;;68.25;42.53;;;;;;;28.74;50.75;101286.31;5077744;27;70351;-31
2021/01/30 00:58:35;;;;;;;75.47;40.28;;;;;;;28.77;51.00;101285.09;5045431;28;65300;-30
2021/01/30 01:01:06;;;;;;;75.80;41.60;;;;;;;28.79;50.50;101288.44;5038269;28;70518;-31
2021/01/30 01:03:40;;;;;;;67.43;39.25;;;;;;;28.80;50.22;101295.50;5053331;28;66262;-31
2021/01/30 01:06:10;;;;;;;;;;;;;;;28.83;50.76;101305.91;5063975;27;69430;-30
2021/01/30 01:08:41;;;;;;;72.97;39.90;;;;;;;28.82;50.66;101298.84;5075279;27;66752;-30
2021/01/30 01:11:11;;;;;;;69.72;40.50;;;;;;;28.90;51.00;101310.31;5059905;27;71160;-30
2021/01/30 01:13:42;;;;;;;69.97;40.88;;;;;;;28.86;50.91;101321.69;5070166;27;66016;-32
2021/01/30 01:16:12;;;;;;;61.03;39.92;;;;;;;28.89;50.75;101319.47;5074295;28;69769;-30
2021/01/30 01:18:44;;;;;;;68.47;40.88;;;;;;;28.93;50.76;101319.91;5064571;27;66072;-30
2021/01/30 01:21:15;;;;;;;71.20;43.08;;;;;;;28.98;50.85;101324.72;5051972;28;68580;-30
2021/01/30 01:23:47;;;;;;;83.57;46.07;;;;;;;28.96;50.86;101331.13;5069353;27;66072;-29
2021/01/30 01:26:19;;;;;;;77.30;45.22;;;;;;;28.78;51.42;101319.13;5074906;27;70035;-31
2021/01/30 01:28:50;;;;;;;73.40;44.13;;;;;;;28.68;51.86;101330.28;5065773;27;66728;-30
2021/01/30 01:31:22;;;;;;;78.47;43.92;;;;;;;28.69;51.74;101343.56;5077026;27;69643;-31
2021/01/30 01:33:52;;;;;;;77.18;44.67;;;;;;;28.58;51.95;101337.88;5076401;28;65093;-31
2021/01/30 01:36:23;;;;;;;77.53;45.88;;;;;;;28.56;52.62;101354.28;5075256;28;69913;-30
2021/01/30 01:38:54;;;;;;;78.43;47.47;;;;;;;28.52;52.17;101350.28;5072690;27;65828;-30
2021/01/30 01:41:25;;;;;;;78.75;46.20;;;;;;;28.57;52.60;101357.81;5098249;27;69970;-33
2021/01/30 01:43:56;;;;;;;74.35;45.55;;;;;;;28.56;52.49;101358.84;5073763;27;65228;-31
2021/01/30 01:46:39;;;;;;;80.95;46.80;;;;;;;28.56;52.07;101331.84;5077167;28;69828;-31
2021/01/30 01:49:19;;;;;;;80.07;46.38;;;;;;;28.61;51.99;101350.97;5085749;27;66123;-32
2021/01/30 01:52:05;;;;;;;88.47;48.15;;;;;;;28.53;52.08;101341.16;5078300;28;69726;-30
2021/01/30 01:54:39;;;;;;;78.60;47.33;;;;;;;28.48;52.43;101339.03;5062178;27;66443;-30
2021/01/30 01:57:15;;;;;;;77.28;47.88;;;;;;;28.65;52.32;101357.69;5079228;28;69960;-30
2021/01/30 01:59:52;;;;;;;74.57;46.78;;;;;;;28.47;51.72;101329.28;5077643;27;66608;-35
2021/01/30 02:02:30;;;;;;;83.80;48.28;;;;;;;28.83;52.08;101365.28;5079162;28;69920;-31
2021/01/30 02:05:23;;;;;;;74.43;48.45;;;;;;;28.77;51.92;101364.22;5075100;28;65464;-30
2021/01/30 02:07:57;;;;;;;80.13;49.35;;;;;;;28.86;52.06;101365.75;5079103;28;69896;-29
2021/01/30 02:10:30;;;;;;;83.75;50.05;;;;;;;28.70;51.72;101333.63;5079236;28;66153;-30
2021/01/30 02:13:07;;;;;;;85.75;51.10;;;;;;;28.86;51.91;101354.09;5076461;28;70328;-30
2021/01/30 02:15:38;;;;;;;86.22;49.15;;;;;;;28.80;51.62;101344.09;5071262;28;66398;-30
2021/01/30 02:18:49;;;;;;;83.00;50.53;;;;;;;28.84;51.90;101367.81;5076903;28;69782;-30
2021/01/30 02:21:56;;;;;;;82.47;50.47;;;;;;;28.86;51.87;101354.09;5023294;28;65416;-31
2021/01/30 02:24:27;;;;;;;77.88;49.63;;;;;;;28.92;52.15;101353.34;5068535;28;69318;-30
2021/01/30 02:27:29;;;;;;;84.68;51.63;;;;;;;28.90;52.24;101358.94;5074869;27;65141;-30
2021/01/30 02:30:26;;;;;;;86.72;55.03;;;;;;;28.94;51.83;101352.09;5056967;28;69353;-32
2021/01/30 02:33:21;;;;;;;91.90;56.33;;;;;;;28.96;52.09;101354.59;5062331;27;65877;-30
2021/01/30 02:36:19;;;;;;;96.80;55.40;;;;;;;28.96;52.13;101355.44;5061797;28;70033;-30
2021/01/30 02:39:22;;;;;;;96.50;50.55;;;;;;;28.98;52.23;101357.13;5076233;28;67137;-30
2021/01/30 02:42:25;;;;;;;91.00;44.80;;;;;;;29.16;51.79;101355.59;5043015;28;70296;-29
2021/01/30 02:45:04;;;;;;;74.90;36.80;;;;;;;29.36;50.97;101350.34;5058610;27;66161;-29
2021/01/30 02:47:40;;;;;;;55.50;32.25;;;;;;;29.42;51.62;101358.69;5072765;28;69909;-30
2021/01/30 02:50:29;;;;;;;50.38;27.55;;;;;;;29.14;52.29;101341.50;5087978;27;65390;-31
2021/01/30 02:53:05;;;;;;;34.45;23.17;;;;;;;29.15;52.13;101347.72;5068461;28;69928;-31
2021/01/30 02:55:36;;;;;;;25.13;18.67;;;;;;;29.14;52.34;101346.03;5071493;27;66803;-33
2021/01/30 02:58:10;;;;;;;19.10;16.33;;;;;;;29.12;52.53;101348.13;5076792;27;69720;-32
2021/01/30 03:00:43;;;;;;;16.52;13.82;;;;;;;29.08;52.96;101358.47;5075873;28;66299;-32
2021/01/30 03:03:14;;;;;;;15.43;11.55;;;;;;;29.14;52.81;101341.50;5077513;28;70398;-31
2021/01/30 03:05:46;;;;;;;13.18;11.82;;;;;;;29.11;53.02;101336.47;5072677;28;65846;-31
2021/01/30 03:08:43;;;;;;;9.93;9.07;;;;;;;29.06;53.57;101327.28;5070644;27;69823;-33
2021/01/30 03:11:16;;;;;;;11.13;8.77;;;;;;;29.24;52.96;101337.59;5067400;27;65301;-31
2021/01/30 03:13:54;;;;;;;17.50;12.50;;;;;;;29.19;53.18;101335.47;5081338;27;70142;-31
2021/01/30 03:16:30;;;;;;;22.02;16.90;;;;;;;29.22;52.72;101318.84;5072170;27;67081;-31
2021/01/30 03:19:09;;;;;;;28.35;19.63;;;;;;;29.34;52.89;101322.69;5062568;27;69877;-31
2021/01/30 03:21:41;;;;;;;43.90;16.25;;;;;;;29.22;52.78;101308.06;5072704;28;66482;-35
2021/01/30 03:24:13;;;;;;;43.70;13.98;;;;;;;29.28;53.55;101326.19;5078418;27;70067;-31
2021/01/30 03:26:45;;;;;;;39.08;16.85;;;;;;;29.34;53.01;101325.41;5067070;27;66410;-31
2021/01/30 03:41:56;;;;;;;17.27;7.85;;;;;;;29.51;53.73;101295.34;5061617;28;71465;-35
2021/01/30 03:44:27;;;;;;;9.60;6.32;;;;;;;29.53;53.76;101290.53;5072076;27;65783;-35
2021/01/30 03:46:57;;;;;;;13.52;12.15;;;;;;;29.58;53.48;101288.06;5066367;28;69584;-35
2021/01/30 03:49:28;;;;;;;23.60;16.30;;;;;;;29.44;53.77;101270.13;5079325;28;66214;-35
2021/01/30 03:51:59;;;;;;;28.83;20.95;;;;;;;29.59;53.44;101289.75;5060746;28;69287;-31
2021/01/30 03:54:29;;;;;;;35.17;22.25;;;;;;;29.70;52.86;101274.81;5063501;27;65226;-31
2021/01/30 03:57:00;;;;;;;34.30;22.20;;;;;;;29.63;53.37;101269.41;5073887;28;70465;-32
2021/01/30 03:59:32;;;;;;;30.02;20.55;;;;;;;29.71;53.38;101266.53;5075234;28;65371;-31
2021/01/30 04:02:05;;;;;;;24.27;17.23;;;;;;;29.63;53.62;101266.72;5071546;27;70304;-31
2021/01/30 04:04:36;;;;;;;18.70;15.50;;;;;;;29.67;53.39;101265.28;5063884;28;65248;-31
2021/01/30 04:07:08;;;;;;;23.27;13.20;;;;;;;29.77;53.21;101264.88;5077164;27;69125;-33
2021/01/30 04:09:38;;;;;;;13.17;11.77;;;;;;;29.81;53.15;101266.97;5072513;27;65912;-35
2021/01/30 04:12:09;;;;;;;12.23;9.85;;;;;;;29.79;53.01;101258.22;5066024;27;70127;-34
2021/01/30 04:14:40;;;;;;;10.38;9.55;;;;;;;29.90;52.80;101258.69;5057809;27;66070;-39
2021/01/30 04:17:10;;;;;;;9.27;8.50;;;;;;;29.89;53.13;101257.00;5078946;27;69229;-35
2021/01/30 04:19:41;;;;;;;9.68;8.70;;;;;;;29.79;52.74;101233.91;5077708;28;65413;-37
2021/01/30 04:22:12;;;;;;;8.93;8.10;;;;;;;29.85;53.25;101245.75;5078082;27;69078;-35
2021/01/30 04:24:44;;;;;;;10.70;8.67;;;;;;;29.92;53.07;101246.63;5064831;27;66389;-36
2021/01/30 04:27:15;;;;;;;9.90;8.73;;;;;;;29.97;52.59;101232.47;5071455;27;70089;-37
2021/01/30 04:29:46;;;;;;;8.15;7.45;;;;;;;29.98;53.05;101234.16;5070241;27;66102;-37
2021/01/30 04:32:16;;;;;;;8.40;7.50;;;;;;;29.95;53.08;101223.72;5056479;28;69864;-34
2021/01/30 04:34:51;;;;;;;7.15;6.13;;;;;;;30.00;52.40;101221.22;5077194;27;66038;-34
2021/01/30 04:37:22;;;;;;;5.38;5.07;;;;;;;30.11;52.32;101222.50;5049633;28;69495;-35
2021/01/30 04:39:52;;;;;;;6.45;6.00;;;;;;;30.14;52.24;101222.06;5080077;27;66236;-36
2021/01/30 04:42:45;;;;;;;8.18;6.30;;;;;;;30.19;52.07;101212.28;5078008;27;70501;-35
2021/01/30 04:45:34;;;;;;;5.30;5.00;;;;;;;30.12;52.03;101202.53;5065164;27;65510;-32
2021/01/30 04:48:32;;;;;;;6.00;5.63;;;;;;;30.10;52.57;101194.63;5065512;27;69872;-32
2021/01/30 04:51:16;;;;;;;6.53;5.15;;;;;;;30.13;52.00;101191.50;5063668;27;65519;-36
2021/01/30 04:54:28;;;;;;;5.57;5.18;;;;;;;30.16;52.00;101184.84;5067635;27;69094;-32
2021/01/30 04:57:02;;;;;;;5.47;5.03;;;;;;;30.28;51.85;101181.34;5063820;27;66012;-34
2021/01/30 04:59:42;;;;;;;5.88;5.03;;;;;;;30.31;52.01;101173.81;5066915;27;69609;-32
2021/01/30 05:02:45;;;;;;;5.47;5.18;;;;;;;30.19;52.13;101169.00;5065671;27;66682;-34
2021/01/30 05:05:20;;;;;;;5.53;5.10;;;;;;;30.31;51.73;101157.56;5045786;27;69831;-32
2021/01/30 05:08:28;;;;;;;8.90;5.35;;;;;;;30.39;51.54;101157.34;5067074;27;65963;-33
2021/01/30 05:11:04;;;;;;;5.32;4.95;;;;;;;30.50;51.66;101156.72;5030155;28;71042;-32
2021/01/30 05:13:53;;;;;;;6.10;5.63;;;;;;;30.49;51.79;101144.22;5067236;27;66161;-32
2021/01/30 05:16:40;;;;;;;8.30;6.25;;;;;;;30.54;51.64;101135.50;5068659;27;69774;-32
2021/01/30 05:19:13;;;;;;;6.57;6.07;;;;;;;30.39;51.41;101100.53;5071043;27;64002;-33
2021/01/30 05:22:00;;;;;;;7.70;7.05;;;;;;;30.40;51.35;101096.78;5069599;27;70148;-33
2021/01/30 05:24:31;;;;;;;8.43;7.82;;;;;;;30.71;51.25;101113.13;5067814;27;66186;-32
2021/01/30 05:27:08;;;;;;;8.17;7.57;;;;;;;30.67;50.84;101114.63;5068717;27;69968;-31
2021/01/30 05:29:52;;;;;;;8.13;7.63;;;;;;;30.70;51.30;101118.75;5065918;27;65735;-31
2021/01/30 05:32:29;;;;;;;9.68;8.82;;;;;;;30.54;51.34;101087.59;5074191;27;69230;-31
2021/01/30 05:35:37;;;;;;;9.73;8.70;;;;;;;30.58;51.08;101105.06;5074662;28;66189;-32
2021/01/30 05:38:30;;;;;;;11.27;9.95;;;;;;;30.79;51.10;101103.13;5044166;27;69860;-31
2021/01/30 05:41:12;;;;;;;10.77;10.02;;;;;;;30.68;51.02;101070.25;5069502;27;66601;-33
2021/01/30 05:43:57;;;;;;;10.60;9.55;;;;;;;30.83;50.59;101077.28;5066385;27;69815;-33
2021/01/30 05:46:31;;;;;;;19.00;10.90;;;;;;;30.84;50.88;101079.81;5073483;28;64835;-32
2021/01/30 05:49:16;;;;;;;10.68;9.88;;;;;;;30.90;50.28;101083.53;5076213;27;69136;-33
2021/01/30 05:51:54;;;;;;;13.20;10.70;;;;;;;30.89;50.43;101076.41;5077548;27;64750;-32
2021/01/30 05:54:25;;;;;;;11.00;10.20;;;;;;;30.98;50.38;101077.84;5076370;28;69738;-33
2021/01/30 05:56:56;;;;;;;11.00;10.15;;;;;;;30.94;50.44;101063.91;5068185;27;66253;-33
2021/01/30 05:59:30;;;;;;;9.93;9.23;;;;;;;30.84;49.58;101038.31;5062296;27;69838;-32
2021/01/30 06:02:12;;;;;;;11.00;10.13;;;;;;;30.79;47.45;101054.38;5064841;27;65725;-33
2021/01/30 06:04:43;;;;;;;14.85;11.02;;;;;;;30.72;46.69;101049.81;5070228;27;69970;-34
2021/01/30 06:07:37;;;;;;;13.75;9.90;;;;;;;30.69;45.69;101044.00;5065374;27;65911;-33
2021/01/30 06:10:27;;;;;;;11.32;10.32;;;;;;;30.83;44.62;101031.25;5064614;27;69417;-34
2021/01/30 06:13:08;;;;;;;12.82;11.70;;;;;;;30.89;44.13;101041.22;5070860;27;65870;-32
2021/01/30 06:15:43;;;;;;;14.80;12.43;;;;;;;30.93;43.12;101023.50;5069071;27;69758;-32
2021/01/30 06:18:26;;;;;;;13.43;11.80;;;;;;;30.90;41.75;101021.22;5069095;27;65538;-31
2021/01/30 06:21:17;;;;;;;12.20;10.98;;;;;;;30.90;42.50;101013.91;5061329;28;70191;-32
2021/01/30 06:24:31;;;;;;;12.38;11.20;;;;;;;30.91;42.01;101012.03;5076754;28;66090;-31
2021/01/30 06:27:07;;;;;;;12.85;11.77;;;;;;;30.94;40.39;101003.47;5076759;28;70656;-32
2021/01/30 06:29:54;;;;;;;13.10;11.77;;;;;;;30.71;40.12;100972.31;5064100;28;66112;-32
2021/01/30 06:32:36;;;;;;;14.05;10.55;;;;;;;30.83;40.15;100993.34;5080597;28;69858;-31
2021/01/30 06:35:22;;;;;;;11.27;10.35;;;;;;;30.77;39.86;100983.34;5067659;28;65516;-32
2021/01/30 06:37:54;;;;;;;11.48;10.60;;;;;;;30.76;40.17;100976.25;5063689;28;69076;-35
2021/01/30 06:40:30;;;;;;;13.80;12.23;;;;;;;30.81;39.43;100968.34;5075823;28;65964;-31
2021/01/30 06:43:15;;;;;;;11.95;10.85;;;;;;;30.73;37.76;100966.72;5062188;28;70967;-32
2021/01/30 06:45:47;;;;;;;11.23;10.40;;;;;;;30.77;38.91;100957.09;5066944;28;65880;-32
2021/01/30 06:48:37;;;;;;;11.90;10.85;;;;;;;30.76;38.27;100954.59;5070388;28;69804;-31
2021/01/30 06:51:37;;;;;;;12.70;11.13;;;;;;;30.74;36.84;100960.22;5079824;27;65193;-31
2021/01/30 06:54:26;;;;;;;11.73;10.73;;;;;;;30.73;36.25;100951.28;5075459;28;70118;-31
2021/01/30 06:57:02;;;;;;;12.40;11.07;;;;;;;30.76;36.71;100951.88;5078687;28;66285;-31
2021/01/30 06:59:37;;;;;;;14.35;10.80;;;;;;;30.64;37.45;100949.88;5069940;27;70411;-31
2021/01/30 07:02:15;;;;;;;15.18;10.48;;;;;;;30.66;36.97;100939.66;5073088;28;65373;-31
2021/01/30 07:05:10;;;;;;;23.65;11.98;;;;;;;30.69;37.09;100947.34;5076721;27;69819;-32
2021/01/30 07:07:57;;;;;;;18.80;11.80;;;;;;;30.72;36.89;100952.31;5068676;27;66517;-35
2021/01/30 07:10:40;;;;;;;16.67;11.70;;;;;;;30.77;36.35;100934.59;5068595;27;69342;-31
2021/01/30 07:13:41;;;;;;;14.52;11.40;;;;;;;30.67;35.21;100935.91;5070833;27;66321;-32
2021/01/30 07:16:39;;;;;;;19.95;10.30;;;;;;;30.75;36.21;100936.69;5020083;27;69458;-32
2021/01/30 07:19:21;;;;;;;12.40;10.75;;;;;;;30.78;36.39;100934.38;5070963;27;65892;-31
2021/01/30 07:22:03;;;;;;;13.35;10.63;;;;;;;30.72;35.48;100927.94;5044033;27;70693;-31
2021/01/30 07:24:47;;;;;;;13.98;9.45;;;;;;;30.78;35.86;100920.00;5033101;28;66151;-31
2021/01/30 07:27:25;;;;;;;12.00;7.97;;;;;;;30.84;35.92;100913.72;5067121;27;69749;-31
2021/01/30 07:30:06;;;;;;;12.65;7.82;;;;;;;30.83;35.69;100914.78;5066255;27;66243;-34
2021/01/30 07:32:37;;;;;;;7.97;7.32;;;;;;;30.86;35.64;100911.66;5068048;27;69891;-31
2021/01/30 07:35:14;;;;;;;9.05;7.30;;;;;;;30.83;35.68;100912.09;5060585;27;66617;-34
2021/01/30 07:38:25;;;;;;;18.77;14.70;;;;;;;30.71;37.90;100888.38;5066650;27;70121;-31
2021/01/30 07:41:01;;;;;;;28.70;18.33;;;;;;;31.00;39.90;100915.91;5057269;28;66249;-30
2021/01/30 07:43:42;;;;;;;29.20;19.75;;;;;;;31.08;40.74;100910.22;5069685;27;69161;-32
2021/01/30 07:46:34;;;;;;;25.92;16.88;;;;;;;30.96;41.93;100890.31;5066529;28;66473;-33
2021/01/30 07:49:13;;;;;;;17.48;15.13;;;;;;;31.06;41.75;100903.34;5054081;28;69528;-33
2021/01/30 07:51:53;;;;;;;15.07;12.77;;;;;;;31.12;41.39;100905.19;5052162;28;66178;-32
2021/01/30 07:54:24;;;;;;;13.05;11.75;;;;;;;31.14;41.94;100901.19;5076302;28;69979;-32
2021/01/30 07:57:10;;;;;;;12.30;11.10;;;;;;;31.13;41.84;100899.53;5073998;27;66329;-34
2021/01/30 07:59:55;;;;;;;16.25;10.93;;;;;;;31.19;42.89;100905.97;5056122;28;69141;-31
2021/01/30 08:02:47;;;;;;;30.00;17.77;;;;;;;31.25;43.39;100898.81;5077409;27;66226;-32
2021/01/30 08:05:20;;;;;;;;;;;;;;;31.27;44.99;100902.16;5075912;28;69540;-31
2021/01/30 08:08:10;;;;;;;41.42;22.20;;;;;;;31.34;45.54;100900.19;5071613;27;67013;-34
2021/01/30 08:10:56;;;;;;;41.92;21.95;;;;;;;31.43;46.49;100896.19;5068948;27;70577;-33
2021/01/30 08:13:46;;;;;;;45.42;21.98;;;;;;;31.41;46.47;100898.28;5068379;27;66187;-32
2021/01/30 08:28:07;;;;;;;43.83;26.02;;;;;;;31.61;48.07;100888.06;5084007;27;43894;-34
2021/01/30 08:30:41;;;;;;;54.67;27.23;;;;;;;31.73;47.52;100900.88;5073722;27;71134;-35
2021/01/30 08:33:12;;;;;;;41.40;28.35;;;;;;;31.73;46.95;100901.72;5073679;27;68271;-34
2021/01/30 08:35:49;;;;;;;55.50;32.08;;;;;;;31.71;47.18;100906.53;5064006;27;70106;-35
2021/01/30 08:38:19;;;;;;;57.00;32.15;;;;;;;31.74;47.52;100903.38;5078591;27;66683;-35
2021/01/30 08:40:52;;;;;;;51.03;32.83;;;;;;;31.81;46.77;100897.84;5073158;27;70969;-36
2021/01/30 08:43:34;;;;;;;;;;;;;;;31.75;47.48;100901.47;5070355;27;66037;-35
2021/01/30 08:46:32;;;;;;;69.18;33.60;;;;;;;31.93;47.15;100904.22;5073137;27;70327;-34
2021/01/30 08:49:15;;;;;;;64.30;32.22;;;;;;;31.89;47.40;100900.25;5079709;27;65991;-35
2021/01/30 08:51:50;;;;;;;89.97;32.08;;;;;;;31.95;47.47;100883.09;5072335;27;69172;-34
2021/01/30 08:54:26;;;;;;;93.07;29.27;;;;;;;32.15;47.43;100901.00;5074639;27;65889;-34
2021/01/30 08:56:59;;;;;;;61.30;28.60;;;;;;;32.25;47.44;100902.13;5069268;27;69962;-34
2021/01/30 08:59:49;;;;;;;72.90;27.60;;;;;;;32.31;47.66;100908.53;5073595;27;65183;-35
2021/01/30 09:02:28;;;;;;;64.90;26.80;;;;;;;32.38;47.57;100903.84;5070185;27;69249;-35
2021/01/30 09:05:06;;;;;;;57.45;28.58;;;;;;;32.41;47.39;100903.38;5072641;27;65776;-35
2021/01/30 09:08:19;;;;;;;64.88;33.78;;;;;;;32.42;47.18;100898.78;5073877;27;69140;-36
2021/01/30 09:11:24;;;;;;;80.32;41.60;;;;;;;32.46;46.38;100895.41;5069197;27;66417;-35
2021/01/30 09:14:08;;;;;;;67.97;36.42;;;;;;;32.52;47.33;100903.69;5071943;27;69785;-36
2021/01/30 09:16:53;;;;;;;79.72;42.35;;;;;;;32.50;46.37;100895.78;5073695;27;65747;-36
2021/01/30 09:19:50;;;;;;;88.32;40.90;;;;;;;32.60;46.57;100906.09;5071651;27;69944;-37
2021/01/30 09:22:21;;;;;;;74.07;36.92;;;;;;;32.61;47.08;100903.13;5081600;27;65298;-38
2021/01/30 09:25:13;;;;;;;76.72;36.97;;;;;;;32.62;47.73;100904.78;5081280;27;69355;-34
2021/01/30 09:28:06;;;;;;;76.63;36.90;;;;;;;32.56;48.31;100894.03;5059283;28;65443;-36
2021/01/30 09:30:45;;;;;;;71.82;35.55;;;;;;;32.68;48.64;100900.28;5056008;28;70473;-36
2021/01/30 09:33:39;;;;;;;81.57;40.05;;;;;;;32.71;48.20;100902.59;5064025;28;66072;-36
2021/01/30 09:36:31;;;;;;;86.47;36.45;;;;;;;32.76;48.84;100910.84;5053104;28;69382;-36
2021/01/30 09:39:03;;;;;;;;;;;;;;;32.73;49.48;100911.31;5059567;28;64623;-38
2021/01/30 09:41:37;;;;;;;56.25;32.53;;;;;;;32.64;49.02;100885.53;5057187;28;69978;-36
2021/01/30 09:44:25;;;;;;;58.55;31.58;;;;;;;32.80;48.51;100917.47;5059913;28;65899;-35
2021/01/30 09:47:01;;;;;;;76.47;35.20;;;;;;;32.80;48.21;100922.91;5067010;28;70078;-35
2021/01/30 09:49:55;;;;;;;62.28;32.72;;;;;;;32.75;48.31;100924.66;5066155;28;65960;-37
2021/01/30 09:52:26;;;;;;;58.15;27.55;;;;;;;32.79;48.41;100921.25;5065953;28;70996;-35
2021/01/30 09:55:10;;;;;;;49.72;25.38;;;;;;;32.79;48.83;100921.25;5071437;27;66326;-35
2021/01/30 09:57:43;;;;;;;36.80;23.15;;;;;;;32.67;48.25;100901.38;5066290;28;70175;-35
2021/01/30 10:00:29;;;;;;;38.63;21.50;;;;;;;32.81;48.74;100929.97;5057283;27;66985;-35
2021/01/30 10:03:09;;;;;;;45.15;21.35;;;;;;;32.82;48.84;100934.38;5058230;28;69876;-36
2021/01/30 10:05:40;;;;;;;56.83;24.90;;;;;;;32.86;48.96;100937.44;5057928;28;66655;-36
2021/01/30 10:08:36;;;;;;;51.10;27.23;;;;;;;32.85;48.91;100930.38;5057351;28;69474;-36
2021/01/30 10:11:19;;;;;;;60.85;30.95;;;;;;;32.88;48.84;100933.44;5046374;28;65671;-36
2021/01/30 10:13:59;;;;;;;74.43;36.97;;;;;;;32.87;48.21;100939.91;5058303;28;70711;-36
2021/01/30 10:16:30;;;;;;;68.00;36.22;;;;;;;32.70;48.51;100944.38;5050371;28;66180;-35
2021/01/30 10:19:11;;;;;;;59.22;34.60;;;;;;;32.53;49.13;100932.50;5056379;28;70085;-36
2021/01/30 10:21:42;;;;;;;59.67;34.35;;;;;;;32.41;49.00;100943.28;5059961;28;67805;-36
2021/01/30 10:24:24;;;;;;;64.83;30.50;;;;;;;32.35;49.61;100947.75;5054909;28;69970;-37
2021/01/30 10:27:11;;;;;;;69.20;35.85;;;;;;;32.15;50.55;100925.44;5063541;27;65706;-45
2021/01/30 10:29:43;;;;;;;174.05;138.45;;;;;;;32.28;49.71;100953.25;5059874;28;69495;-35
2021/01/30 10:32:27;;;;;;;156.48;127.28;;;;;;;32.17;50.44;100947.75;5047359;28;66010;-36
2021/01/30 10:35:02;;;;;;;204.43;170.32;;;;;;;32.15;50.51;100942.56;5057000;28;70633;-36
2021/01/30 10:37:41;;;;;;;287.92;251.73;;;;;;;32.10;50.60;100950.56;5054406;28;66005;-37
2021/01/30 10:40:32;;;;;;;407.90;361.55;;;;;;;32.05;50.55;100943.09;5047414;28;69485;-35
2021/01/30 10:43:11;;;;;;;496.13;404.40;;;;;;;32.01;50.16;100958.19;5056689;28;66331;-36
2021/01/30 10:45:52;;;;;;;597.63;506.90;;;;;;;32.02;49.79;100946.25;5054058;28;69388;-35
2021/01/30 10:48:27;;;;;;;606.03;522.28;;;;;;;31.91;49.82;100947.03;5053975;28;65922;-36
2021/01/30 10:51:08;;;;;;;672.03;592.22;;;;;;;31.97;49.83;100956.97;5059536;28;69654;-35
2021/01/30 10:53:41;;;;;;;556.00;476.10;;;;;;;31.98;50.00;100966.78;5054913;28;66341;-40
2021/01/30 10:56:20;;;;;;;440.42;339.40;;;;;;;31.89;49.75;100970.78;5051171;28;69477;-37
2021/01/30 10:58:54;;;;;;;365.20;266.45;;;;;;;31.89;50.10;100965.38;5058423;28;66807;-36
2021/01/30 11:01:25;;;;;;;295.88;219.70;;;;;;;31.87;50.20;100970.19;5059000;28;69425;-37
2021/01/30 11:04:02;;;;;;;259.45;178.15;;;;;;;31.87;49.70;100967.47;5047290;28;66538;-36
2021/01/30 11:06:41;;;;;;;214.15;150.05;;;;;;;31.72;49.45;100945.31;5057195;28;69516;-37
2021/01/30 11:09:24;;;;;;;184.52;125.10;;;;;;;31.79;49.92;100975.94;5054187;28;66705;-37
2021/01/30 11:12:19;;;;;;;168.88;109.97;;;;;;;31.73;50.38;100977.66;5051371;28;69997;-36
2021/01/30 11:14:50;;;;;;;137.88;94.28;;;;;;;31.83;50.64;100991.50;5066286;28;64650;-36
2021/01/30 11:17:33;;;;;;;126.60;84.87;;;;;;;31.67;50.72;100999.41;5064702;28;69417;-40
2021/01/30 11:20:10;;;;;;;110.57;77.03;;;;;;;31.78;50.52;101006.81;5069181;28;66258;-39
2021/01/30 11:22:50;;;;;;;98.20;68.15;;;;;;;31.79;50.94;101003.06;5064934;28;70688;-36
2021/01/30 11:25:35;;;;;;;99.10;62.55;;;;;;;31.77;50.44;101016.81;5062106;28;65891;-36
2021/01/30 11:28:07;;;;;;;87.25;56.70;;;;;;;31.80;51.02;101015.56;5052808;28;70007;-35
2021/01/30 11:30:38;;;;;;;87.88;53.22;;;;;;;31.76;50.73;101014.31;5060053;28;66249;-35
2021/01/30 11:33:17;;;;;;;78.15;51.47;;;;;;;31.74;51.29;101021.88;5049292;28;69424;-34
2021/01/30 11:35:53;;;;;;;74.63;46.25;;;;;;;31.66;51.24;101011.31;5053772;28;65361;-34
2021/01/30 11:38:28;;;;;;;71.15;43.00;;;;;;;31.61;51.23;101004.66;5049118;28;70098;-36
2021/01/30 11:41:01;;;;;;;77.55;43.10;;;;;;;31.76;50.89;101022.47;5052130;28;65880;-33
2021/01/30 11:43:31;;;;;;;67.13;40.63;;;;;;;31.72;51.23;101029.41;5052912;28;70100;-34
2021/01/30 11:46:02;;;;;;;68.50;38.20;;;;;;;31.76;51.49;101041.44;5052576;28;66117;-34
2021/01/30 11:48:33;;;;;;;56.05;34.28;;;;;;;31.70;51.85;101042.34;5052865;28;69273;-34
2021/01/30 11:51:04;;;;;;;56.47;30.75;;;;;;;31.65;51.82;101044.88;5052296;28;65578;-34
2021/01/30 11:53:35;;;;;;;43.03;27.45;;;;;;;31.68;51.65;101055.28;5050242;28;69958;-36
2021/01/30 11:56:05;;;;;;;41.72;25.40;;;;;;;31.69;51.55;101057.78;5055702;28;66244;-34
2021/01/30 11:58:36;;;;;;;40.80;25.42;;;;;;;31.64;51.56;101056.78;5056240;28;69023;-34
2021/01/30 12:01:07;;;;;;;41.22;23.75;;;;;;;31.59;51.59;101055.59;5049988;28;65111;-35
2021/01/30 12:03:40;;;;;;;31.80;22.60;;;;;;;31.59;52.42;101052.88;5046654;28;70836;-35
2021/01/30 12:06:11;;;;;;;40.85;21.55;;;;;;;31.59;52.36;101058.31;5062036;28;65526;-34
2021/01/30 12:08:42;;;;;;;30.48;18.65;;;;;;;31.53;52.50;101064.59;5055813;28;70558;-34
2021/01/30 12:11:13;;;;;;;21.77;15.53;;;;;;;31.53;52.57;101075.44;5035854;28;65714;-34
2021/01/30 12:13:45;;;;;;;30.35;17.60;;;;;;;31.58;52.75;101072.06;5048834;28;70658;-34
2021/01/30 12:16:18;;;;;;;34.20;18.60;;;;;;;31.51;52.23;101077.56;5048430;28;65798;-41
2021/01/30 12:18:49;;;;;;;28.55;18.40;;;;;;;31.53;51.76;101075.44;5046904;28;69973;-34
2021/01/30 12:21:19;;;;;;;27.92;17.92;;;;;;;31.35;51.44;101053.66;5046433;28;65403;-36
2021/01/30 12:23:50;;;;;;;25.33;16.95;;;;;;;31.48;51.84;101083.41;5050829;28;69123;-35
2021/01/30 12:26:24;;;;;;;26.27;17.98;;;;;;;31.42;51.67;101089.69;5047231;28;65797;-34
2021/01/30 12:28:55;;;;;;;28.50;17.90;;;;;;;31.45;51.57;101091.13;5049646;28;69790;-34